Northumberland Strait: Past 24 Hour Conditions

 

St. John's Int'l Airport

02:30 AM NDT 25 April 2014
This table is a summary of hourly weather conditions for the past 24 hours.
Date / Time
(NDT)
Wind(knots) Conditions Visibility(km) Pressure(kPa) Air tempC) Relative humidity(%) Dew pointC) Wind Chill
25 April 2014
2:30 NE 19 gust 26 Light Drizzle 0.6 99.7 1 99 1 *
1:30 NE 19 gust 27 Light Drizzle 0.6 99.8 1 99 1 *
0:30 NE 25 gust 34 Light Drizzle 0.6 99.9 1 99 1 *
24 April 2014
23:30 ENE 20 gust 31 Light Drizzle 0.8 100.0 1 99 1 *
22:30 ENE 20 gust 28 Light Drizzle 0.8 100.1 1 99 1 *
21:30 ENE 22 gust 33 Light Drizzle 0.8 100.2 1 99 1 *
20:30 NE 22 gust 32 Light Rain 0.8 100.2 1 99 1 *
19:30 NE 21 gust 31 Light Rain 0.8 100.3 0 99 0 *
18:30 NE 24 gust 29 Light Rain 2 100.3 1 99 1 *
17:30 NE 20 gust 30 Light Rain 8 100.3 0 98 0 *
16:30 NE 18 gust 26 Light Freezing Rain 13 100.4 0 97 -1 -7
15:30 NE 16 gust 22 Cloudy 16 100.5 0 95 -1 -6
14:30 NE 18 gust 24 Mostly Cloudy 19 100.6 0 91 -1 *
13:30 NE 16 gust 21 Mostly Cloudy 24 100.6 0 91 -1 *
12:30 NE 19 gust 24 Light Freezing Rain 19 100.7 0 94 -1 -7
11:30 NE 18 gust 24 Light Rain 24 100.7 0 90 -1 *
10:30 NE 17 gust 22 Cloudy 24 100.7 0 92 -1 -7
9:30 NE 17 gust 25 Cloudy 24 100.7 0 92 -1 -7
8:30 NE 19 gust 26 Cloudy 24 100.6 0 92 -2 -8
7:30 NE 18 gust 24 Cloudy 24 100.6 -1 92 -2 -7
6:30 NE 17 gust 26 Mostly Cloudy 24 100.5 -1 93 -2 -8
5:30 NE 19 Light Snowshower 19 100.6 -1 93 -2 -8
4:30 NE 16 gust 22 Light Snowshower 19 100.6 -1 94 -2 -8
3:30 NE 14 gust 20 Cloudy 24 100.6 -1 93 -2 -7
2:30 NE 15 gust 24 Mostly Cloudy 24 100.7 -1 92 -2 -7
 
Map of Atlantic - Newfoundland marine weather areas Southwestern Grand Banks - 44138 Banquereau - 44139 Tail of the Bank - 44140 Nickerson Bank - 44251 Northeast Burgeo Bank - 44255 Blanc-Sablon Airport Cap Whittle Chevery Natashquan Airport Heath Point Miscou Island Grand Étang Ingonish Beach North Mountain St.Paul Island J.A. Douglas McCurdy Sydney Airport Charlottetown Airport East Point North Cape Argentia Bonavista Burgeo Cape Race Corner Brook Daniel's Harbour Englee Ferolle Point La Scie Port aux Basques Rocky Harbour Sagona Island St. Anthony Airport St. John's Int'l Airport St. Lawrence Stephenville Airport Twillingate Winterland Wreckhouse Cartwright Airport Mary's Harbour Grates Cove Pool's Island Marticot Island Long Pond Îles de la Madeleine Airport
Legend: buoyBuoy land stationLand Station